createdAt,value
2023-05-19T00:01:43.741Z,101163.59
2023-05-19T00:04:14.703Z,101158.41
2023-05-19T00:06:49.097Z,101157.28
2023-05-19T00:09:17.838Z,101159.81
2023-05-19T00:11:46.967Z,101147.53
2023-05-19T00:14:15.650Z,101157.50
2023-05-19T00:16:44.964Z,101149.34
2023-05-19T00:19:13.524Z,101158.41
2023-05-19T00:21:42.198Z,101154.47
2023-05-19T00:24:13.105Z,101144.69
2023-05-19T00:26:41.285Z,101145.84
2023-05-19T00:29:09.531Z,101147.50
2023-05-19T00:31:38.141Z,101152.06
2023-05-19T00:34:06.729Z,101156.59
2023-05-19T00:36:35.292Z,101154.22
2023-05-19T00:39:04.624Z,101157.91
2023-05-19T00:41:34.464Z,101154.59
2023-05-19T00:44:02.771Z,101156.81
2023-05-19T00:46:31.605Z,101160.84
2023-05-19T00:48:59.767Z,101154.75
2023-05-19T00:51:31.248Z,101152.00
2023-05-19T00:54:01.119Z,101143.78
2023-05-19T00:56:29.952Z,101149.03
2023-05-19T00:59:00.379Z,101148.00
2023-05-19T01:01:29.162Z,101146.72
2023-05-19T01:03:59.492Z,101148.75
2023-05-19T01:06:29.590Z,101138.97
2023-05-19T01:08:58.710Z,101153.41
2023-05-19T01:11:27.309Z,101145.03
2023-05-19T01:13:57.556Z,101143.00
2023-05-19T01:16:32.121Z,101146.88
2023-05-19T01:19:12.323Z,101137.41
2023-05-19T01:22:16.553Z,101134.03
2023-05-19T01:25:08.839Z,101137.34
2023-05-19T01:27:48.722Z,101133.66
2023-05-19T01:30:34.600Z,101132.88
2023-05-19T01:33:06.625Z,101132.97
2023-05-19T01:35:39.053Z,101132.50
2023-05-19T01:38:10.240Z,101126.63
2023-05-19T01:40:40.186Z,101139.84
2023-05-19T01:43:10.551Z,101135.16
2023-05-19T01:45:41.688Z,101133.88
2023-05-19T01:48:12.345Z,101128.31
2023-05-19T01:50:40.389Z,101135.66
2023-05-19T01:53:09.392Z,101139.31
2023-05-19T01:55:46.208Z,101139.31
2023-05-19T01:58:21.891Z,101141.94
2023-05-19T02:00:58.603Z,101141.00
2023-05-19T02:03:48.709Z,101139.69
2023-05-19T02:06:28.635Z,101148.38
2023-05-19T02:09:03.903Z,101149.47
2023-05-19T02:11:38.968Z,101144.81
2023-05-19T02:14:14.739Z,101145.53
2023-05-19T02:16:46.745Z,101152.72
2023-05-19T02:19:23.062Z,101146.44
2023-05-19T02:21:51.379Z,101147.63
2023-05-19T02:24:22.904Z,101151.34
2023-05-19T02:26:52.137Z,101154.13
2023-05-19T02:29:21.407Z,101152.44
2023-05-19T02:31:53.274Z,101156.22
2023-05-19T02:34:21.436Z,101158.34
2023-05-19T02:36:50.657Z,101155.75
2023-05-19T02:39:18.862Z,101148.66
2023-05-19T02:41:47.392Z,101141.41
2023-05-19T02:44:15.930Z,101140.94
2023-05-19T02:46:44.215Z,101149.19
2023-05-19T02:49:13.889Z,101137.06
2023-05-19T02:51:42.512Z,101144.38
2023-05-19T02:54:11.311Z,101135.34
2023-05-19T02:56:40.797Z,101145.25
2023-05-19T02:59:09.342Z,101136.13
2023-05-19T03:01:40.428Z,101141.00
2023-05-19T03:04:09.136Z,101137.59
2023-05-19T03:06:39.440Z,101136.44
2023-05-19T03:09:07.686Z,101140.03
2023-05-19T03:11:36.387Z,101136.19
2023-05-19T03:14:06.238Z,101132.56
2023-05-19T03:16:34.668Z,101133.94
2023-05-19T03:19:03.320Z,101133.50
2023-05-19T03:21:32.053Z,101137.03
2023-05-19T03:24:03.418Z,101147.97
2023-05-19T03:26:31.549Z,101140.81
2023-05-19T03:29:00.076Z,101136.34
2023-05-19T03:31:29.157Z,101142.19
2023-05-19T03:33:58.553Z,101132.16
2023-05-19T03:36:32.161Z,101136.88
2023-05-19T03:39:03.214Z,101144.13
2023-05-19T03:41:31.908Z,101149.41
2023-05-19T03:44:00.153Z,101151.06
2023-05-19T03:46:28.626Z,101152.53
2023-05-19T03:49:09.246Z,101150.09
2023-05-19T03:51:57.423Z,101149.72
2023-05-19T03:54:34.796Z,101153.44
2023-05-19T03:57:03.628Z,101154.31
2023-05-19T03:59:33.073Z,101155.06
2023-05-19T04:02:01.552Z,101151.47
2023-05-19T04:04:30.953Z,101160.59
2023-05-19T04:06:59.639Z,101162.69
2023-05-19T04:09:28.579Z,101164.19
2023-05-19T04:11:58.814Z,101159.72
2023-05-19T04:14:27.074Z,101156.28
2023-05-19T04:16:55.879Z,101164.13
2023-05-19T04:19:25.902Z,101154.34
2023-05-19T04:21:54.209Z,101165.94
2023-05-19T04:24:22.843Z,101161.06
2023-05-19T04:26:52.149Z,101164.34
2023-05-19T04:29:24.350Z,101171.88
2023-05-19T04:31:52.927Z,101166.72
2023-05-19T04:34:23.051Z,101173.13
2023-05-19T04:36:53.389Z,101174.34
2023-05-19T04:39:24.245Z,101170.63
2023-05-19T04:41:55.125Z,101174.34
2023-05-19T04:44:24.804Z,101178.69
2023-05-19T04:46:54.552Z,101175.38
2023-05-19T04:49:25.326Z,101181.66
2023-05-19T04:51:55.793Z,101183.91
2023-05-19T04:54:28.843Z,101186.56
2023-05-19T04:56:57.492Z,101176.94
2023-05-19T04:59:30.840Z,101189.63
2023-05-19T05:01:59.518Z,101180.31
2023-05-19T05:04:31.446Z,101189.91
2023-05-19T05:07:00.396Z,101184.72
2023-05-19T05:09:29.870Z,101186.72
2023-05-19T05:12:02.803Z,101188.03
2023-05-19T05:14:34.786Z,101191.53
2023-05-19T05:17:05.567Z,101190.06
2023-05-19T05:19:37.490Z,101182.94
2023-05-19T05:22:09.932Z,101190.91
2023-05-19T05:24:49.887Z,101192.09
2023-05-19T05:27:21.915Z,101179.97
2023-05-19T05:29:59.459Z,101180.19
2023-05-19T05:32:30.755Z,101177.53
2023-05-19T05:35:10.201Z,101180.94
2023-05-19T05:37:42.640Z,101184.03
2023-05-19T05:40:11.758Z,101185.94
2023-05-19T05:42:40.870Z,101186.34
2023-05-19T05:45:11.661Z,101179.22
2023-05-19T05:47:41.507Z,101183.84
2023-05-19T05:50:11.762Z,101182.88
2023-05-19T05:52:42.759Z,101186.00
2023-05-19T05:55:12.163Z,101188.09
2023-05-19T05:57:41.842Z,101186.44
2023-05-19T06:00:15.924Z,101182.25
2023-05-19T06:02:47.461Z,101185.84
2023-05-19T06:05:18.454Z,101183.28
2023-05-19T06:07:49.027Z,101188.34
2023-05-19T06:10:32.085Z,101182.69
2023-05-19T06:13:01.268Z,101176.97
2023-05-19T06:15:31.380Z,101187.69
2023-05-19T06:18:08.445Z,101187.91
2023-05-19T06:20:36.641Z,101169.78
2023-05-19T06:23:06.943Z,101179.56
2023-05-19T06:25:35.370Z,101185.16
2023-05-19T06:28:03.626Z,101181.50
2023-05-19T06:30:33.648Z,101173.63
2023-05-19T06:33:22.037Z,101174.31
2023-05-19T06:35:52.014Z,101179.22
2023-05-19T06:38:23.706Z,101186.81
2023-05-19T06:40:52.709Z,101190.78
2023-05-19T06:43:21.204Z,101184.56
2023-05-19T06:45:58.640Z,101185.13
2023-05-19T06:48:30.437Z,101189.31
2023-05-19T06:51:00.348Z,101198.72
2023-05-19T06:53:29.254Z,101189.72
2023-05-19T06:55:59.804Z,101189.31
2023-05-19T06:58:31.920Z,101193.66
2023-05-19T07:01:04.659Z,101190.56
2023-05-19T07:03:38.351Z,101181.84
2023-05-19T07:06:08.303Z,101181.19
2023-05-19T07:08:38.620Z,101183.94
2023-05-19T07:11:09.702Z,101180.38
2023-05-19T07:13:38.237Z,101174.22
2023-05-19T07:16:08.663Z,101175.81
2023-05-19T07:18:37.368Z,101167.00
2023-05-19T07:21:07.436Z,101165.47
2023-05-19T07:23:36.340Z,101165.16
2023-05-19T07:26:04.703Z,101161.09
2023-05-19T07:28:34.388Z,101153.09
2023-05-19T07:31:02.518Z,101156.47
2023-05-19T07:33:32.152Z,101147.72
2023-05-19T07:36:01.340Z,101147.03
2023-05-19T07:38:29.461Z,101152.06
2023-05-19T07:40:57.761Z,101139.09
2023-05-19T07:43:26.228Z,101144.13
2023-05-19T07:45:56.264Z,101144.72
2023-05-19T07:48:26.109Z,101147.72
2023-05-19T07:50:55.885Z,101136.03
2023-05-19T07:53:24.623Z,101134.22
2023-05-19T07:55:52.964Z,101129.78
2023-05-19T07:58:21.168Z,101127.34
2023-05-19T08:00:49.316Z,101134.53
2023-05-19T08:03:18.378Z,101129.22
2023-05-19T08:05:46.989Z,101123.84
2023-05-19T08:08:17.412Z,101125.47
2023-05-19T08:10:45.694Z,101128.00
2023-05-19T08:13:14.030Z,101129.44
2023-05-19T08:15:42.733Z,101130.16
2023-05-19T08:18:11.179Z,101129.44
2023-05-19T08:20:39.755Z,101133.59
2023-05-19T08:23:07.954Z,101131.41
2023-05-19T08:25:37.886Z,101130.06
2023-05-19T08:28:06.813Z,101127.56
2023-05-19T08:30:35.352Z,101121.50
2023-05-19T08:33:03.809Z,101125.06
2023-05-19T08:35:32.250Z,101111.22
2023-05-19T08:38:00.685Z,101125.53
2023-05-19T08:40:31.917Z,101121.72
2023-05-19T08:43:01.941Z,101113.78
2023-05-19T08:45:31.220Z,101112.59
2023-05-19T08:48:00.291Z,101109.13
2023-05-19T08:50:34.483Z,101116.38
2023-05-19T08:53:18.113Z,101101.97
2023-05-19T08:56:03.094Z,101106.28
2023-05-19T08:58:34.596Z,101107.25
2023-05-19T09:01:04.474Z,101091.81
2023-05-19T09:03:39.031Z,101100.66
2023-05-19T09:06:09.954Z,101094.81
2023-05-19T09:08:40.153Z,101090.13
2023-05-19T09:11:11.040Z,101089.41
2023-05-19T09:13:41.264Z,101081.44
2023-05-19T09:16:11.192Z,101090.25
2023-05-19T09:18:41.434Z,101087.31
2023-05-19T09:21:11.210Z,101085.22
2023-05-19T09:23:40.861Z,101076.66
2023-05-19T09:26:09.055Z,101075.69
2023-05-19T09:28:38.850Z,101079.97
2023-05-19T09:31:10.551Z,101079.72
2023-05-19T09:33:41.050Z,101069.75
2023-05-19T09:36:11.709Z,101075.81
2023-05-19T09:38:42.560Z,101080.09
2023-05-19T09:41:10.968Z,101071.28
2023-05-19T09:43:39.111Z,101076.25
2023-05-19T09:46:12.160Z,101072.09
2023-05-19T09:48:42.682Z,101083.38
2023-05-19T09:51:11.747Z,101078.63
2023-05-19T09:53:40.670Z,101071.75
2023-05-19T09:56:12.462Z,101068.69
2023-05-19T09:58:43.106Z,101065.63
2023-05-19T10:01:13.171Z,101066.63
2023-05-19T10:03:43.113Z,101055.56
2023-05-19T10:06:15.526Z,101052.41
2023-05-19T10:08:45.499Z,101054.91
2023-05-19T10:11:14.294Z,101057.28
2023-05-19T10:13:43.693Z,101060.00
2023-05-19T10:16:16.546Z,101051.56
2023-05-19T10:18:45.114Z,101053.19
2023-05-19T10:21:15.098Z,101053.41
2023-05-19T10:23:44.465Z,101049.44
2023-05-19T10:26:13.920Z,101045.13
2023-05-19T10:28:44.811Z,101039.28
2023-05-19T10:31:21.440Z,101037.31
2023-05-19T10:34:04.229Z,101040.91
2023-05-19T10:36:49.980Z,101033.31
2023-05-19T10:39:22.423Z,101027.41
2023-05-19T10:42:02.215Z,101022.53
2023-05-19T10:44:42.125Z,101021.19
2023-05-19T10:47:12.760Z,101028.69
2023-05-19T10:49:42.277Z,101006.72
2023-05-19T10:52:23.042Z,101007.38
2023-05-19T10:54:54.533Z,101006.25
2023-05-19T10:57:27.664Z,101017.31
2023-05-19T10:59:57.222Z,101011.34
2023-05-19T11:02:55.999Z,101009.38
2023-05-19T11:05:30.289Z,101002.69
2023-05-19T11:08:03.052Z,101007.53
2023-05-19T11:10:32.254Z,101006.38
2023-05-19T11:13:02.945Z,101011.03
2023-05-19T11:15:36.009Z,101003.63
2023-05-19T11:18:05.874Z,101001.97
2023-05-19T11:20:35.055Z,101004.13
2023-05-19T11:23:08.942Z,100998.09
2023-05-19T11:25:48.597Z,100997.13
2023-05-19T11:28:19.314Z,100989.91
2023-05-19T11:30:51.665Z,100996.81
2023-05-19T11:33:27.692Z,100994.94
2023-05-19T11:35:58.911Z,100992.63
2023-05-19T11:38:28.391Z,101000.47
2023-05-19T11:40:57.450Z,100985.28
2023-05-19T11:43:26.259Z,100977.41
2023-05-19T11:45:57.049Z,100987.28
2023-05-19T11:48:27.524Z,100983.22
2023-05-19T11:50:57.100Z,100995.41
2023-05-19T11:53:25.141Z,100980.94
2023-05-19T11:55:53.634Z,100992.47
2023-05-19T11:58:26.870Z,100990.34
2023-05-19T12:00:55.395Z,100976.28
2023-05-19T12:03:28.783Z,100980.78
2023-05-19T12:05:58.860Z,100978.06
2023-05-19T12:08:30.736Z,100975.66
2023-05-19T12:10:59.129Z,100967.88
2023-05-19T12:13:28.643Z,100977.44
2023-05-19T12:16:00.989Z,100979.78
2023-05-19T12:18:31.884Z,100976.00
2023-05-19T12:21:01.431Z,100972.97
2023-05-19T12:23:30.985Z,100972.66
2023-05-19T12:25:59.726Z,100971.19
2023-05-19T12:28:31.380Z,100981.03
2023-05-19T12:31:00.441Z,100969.00
2023-05-19T12:33:28.646Z,100960.72
2023-05-19T12:35:57.324Z,100970.69
2023-05-19T12:38:26.989Z,100966.59
2023-05-19T12:40:59.534Z,100969.97
2023-05-19T12:43:28.105Z,100961.53
2023-05-19T12:45:56.191Z,100970.94
2023-05-19T12:48:24.550Z,100960.22
2023-05-19T12:50:53.945Z,100956.69
2023-05-19T12:53:22.301Z,100955.41
2023-05-19T12:55:53.895Z,100953.41
2023-05-19T12:58:23.315Z,100951.16
2023-05-19T13:00:52.818Z,100961.19
2023-05-19T13:03:23.048Z,100956.44
2023-05-19T13:05:52.589Z,100958.84
2023-05-19T13:08:21.866Z,100961.13
2023-05-19T13:10:51.575Z,100951.56
2023-05-19T13:13:19.832Z,100959.22
2023-05-19T13:15:49.482Z,100954.19
2023-05-19T13:18:18.661Z,100947.56
2023-05-19T13:20:49.383Z,100957.38
2023-05-19T13:23:18.836Z,100939.19
2023-05-19T13:25:50.643Z,100933.94
2023-05-19T13:28:20.449Z,100944.13
2023-05-19T13:30:49.568Z,100935.66
2023-05-19T13:33:18.187Z,100936.81
2023-05-19T13:35:46.433Z,100931.72
2023-05-19T13:38:15.073Z,100928.91
2023-05-19T13:40:43.806Z,100930.88
2023-05-19T13:43:12.410Z,100938.63
2023-05-19T13:45:42.765Z,100940.69
2023-05-19T13:48:11.769Z,100935.91
2023-05-19T13:50:39.855Z,100934.31
2023-05-19T13:53:08.754Z,100928.00
2023-05-19T13:55:37.177Z,100933.88
2023-05-19T13:58:06.474Z,100924.16
2023-05-19T14:00:36.315Z,100936.31
2023-05-19T14:03:07.485Z,100920.53
2023-05-19T14:05:35.885Z,100923.44
2023-05-19T14:08:06.581Z,100927.34
2023-05-19T14:10:35.094Z,100935.81
2023-05-19T14:13:30.360Z,100935.19
2023-05-19T14:15:53.027Z,100919.44
2023-05-19T14:18:25.410Z,100928.53
2023-05-19T14:20:55.092Z,100925.34
2023-05-19T14:23:23.642Z,100915.06
2023-05-19T14:25:51.827Z,100928.81
2023-05-19T14:28:20.058Z,100922.13
2023-05-19T14:30:48.484Z,100919.00
2023-05-19T14:33:16.883Z,100910.75
2023-05-19T14:35:48.637Z,100912.59
2023-05-19T14:38:17.507Z,100907.56
2023-05-19T14:40:48.613Z,100910.47
2023-05-19T14:43:18.369Z,100917.22
2023-05-19T14:45:46.482Z,100913.59
2023-05-19T14:48:15.074Z,100910.78
2023-05-19T14:50:43.597Z,100905.41
2023-05-19T14:53:13.757Z,100901.88
2023-05-19T14:55:42.561Z,100899.34
2023-05-19T14:58:26.836Z,100905.47
2023-05-19T15:01:00.366Z,100905.13
2023-05-19T15:03:29.069Z,100906.28
2023-05-19T15:05:57.611Z,100913.00
2023-05-19T15:08:27.973Z,100906.16
2023-05-19T15:10:56.762Z,100906.56
2023-05-19T15:13:26.648Z,100901.16
2023-05-19T15:16:08.422Z,100902.56
2023-05-19T15:18:44.116Z,100902.44
2023-05-19T15:21:12.521Z,100890.09
2023-05-19T15:23:42.845Z,100898.50
2023-05-19T15:26:11.370Z,100898.47
2023-05-19T15:28:39.836Z,100898.16
2023-05-19T15:31:08.951Z,100889.25
2023-05-19T15:33:37.908Z,100894.63
2023-05-19T15:36:07.010Z,100894.34
2023-05-19T15:38:36.994Z,100899.78
2023-05-19T15:41:10.150Z,100891.81
2023-05-19T15:43:38.707Z,100889.81
2023-05-19T15:46:07.116Z,100888.44
2023-05-19T15:48:36.253Z,100880.66
2023-05-19T15:51:04.750Z,100879.56
2023-05-19T15:53:33.220Z,100885.72
2023-05-19T15:56:02.659Z,100882.41
2023-05-19T15:58:34.206Z,100882.72
2023-05-19T16:01:03.835Z,100881.59
2023-05-19T16:03:32.468Z,100875.50
2023-05-19T16:06:01.157Z,100874.19
2023-05-19T16:08:33.469Z,100870.03
2023-05-19T16:11:02.194Z,100873.31
2023-05-19T16:13:33.636Z,100877.16
2023-05-19T16:16:03.867Z,100866.09
2023-05-19T16:18:42.719Z,100860.38
2023-05-19T16:21:11.132Z,100864.16
2023-05-19T16:23:39.359Z,100854.28
2023-05-19T16:26:07.968Z,100865.44
2023-05-19T16:28:36.622Z,100865.22
2023-05-19T16:31:06.448Z,100861.56
2023-05-19T16:33:34.580Z,100848.97
2023-05-19T16:36:04.078Z,100856.72
2023-05-19T16:38:33.068Z,100855.13
2023-05-19T16:41:01.711Z,100847.28
2023-05-19T16:43:30.131Z,100847.19
2023-05-19T16:45:58.465Z,100847.94
2023-05-19T16:48:28.406Z,100844.38
2023-05-19T16:50:57.332Z,100835.34
2023-05-19T16:53:27.534Z,100835.34
2023-05-19T16:55:56.422Z,100839.63
2023-05-19T16:58:27.935Z,100833.38
2023-05-19T17:00:57.817Z,100832.28
2023-05-19T17:03:29.156Z,100834.47
2023-05-19T17:05:57.599Z,100835.47
2023-05-19T17:08:25.934Z,100831.25
2023-05-19T17:10:54.494Z,100834.63
2023-05-19T17:13:25.846Z,100822.81
2023-05-19T17:15:54.321Z,100822.16
2023-05-19T17:18:22.776Z,100822.63
2023-05-19T17:20:52.422Z,100834.84
2023-05-19T17:23:20.654Z,100826.28
2023-05-19T17:25:49.614Z,100828.84
2023-05-19T17:28:17.764Z,100827.63
2023-05-19T17:30:46.660Z,100828.56
2023-05-19T17:33:15.372Z,100833.84
2023-05-19T17:35:43.694Z,100827.38
2023-05-19T17:38:14.040Z,100827.22
2023-05-19T17:40:42.343Z,100827.56
2023-05-19T17:43:10.530Z,100825.22
2023-05-19T17:45:39.779Z,100823.78
2023-05-19T17:48:08.201Z,100834.75
2023-05-19T17:50:37.927Z,100832.69
2023-05-19T17:53:06.692Z,100832.41
2023-05-19T17:55:37.611Z,100829.59
2023-05-19T17:58:06.802Z,100840.25
2023-05-19T18:00:35.817Z,100833.28
2023-05-19T18:03:06.376Z,100828.00
2023-05-19T18:05:35.267Z,100828.16
2023-05-19T18:08:07.280Z,100831.69
2023-05-19T18:10:40.838Z,100831.34
2023-05-19T18:13:14.014Z,100828.78
2023-05-19T18:15:42.624Z,100834.72
2023-05-19T18:18:15.098Z,100827.47
2023-05-19T18:20:45.530Z,100833.50
2023-05-19T18:23:14.204Z,100838.34
2023-05-19T18:25:50.414Z,100832.50
2023-05-19T18:28:18.550Z,100828.03
2023-05-19T18:30:46.976Z,100826.22
2023-05-19T18:33:15.089Z,100829.50
2023-05-19T18:35:47.314Z,100828.50
2023-05-19T18:38:15.460Z,100831.38
2023-05-19T18:40:45.490Z,100838.22
2023-05-19T18:43:13.790Z,100827.78
2023-05-19T18:45:42.327Z,100822.84
2023-05-19T18:48:10.810Z,100821.06
2023-05-19T18:50:39.188Z,100825.97
2023-05-19T18:53:07.464Z,100827.50
2023-05-19T18:55:38.301Z,100821.75
2023-05-19T18:58:08.148Z,100829.72
2023-05-19T19:00:36.977Z,100827.81
2023-05-19T19:03:05.684Z,100818.16
2023-05-19T19:05:33.943Z,100826.78
2023-05-19T19:08:05.794Z,100829.03
2023-05-19T19:10:38.953Z,100830.91
2023-05-19T19:13:08.722Z,100828.75
2023-05-19T19:15:37.895Z,100833.88
2023-05-19T19:18:08.244Z,100837.56
2023-05-19T19:20:38.237Z,100844.09
2023-05-19T19:23:06.784Z,100844.72
2023-05-19T19:25:36.084Z,100842.53
2023-05-19T19:28:04.273Z,100843.53
2023-05-19T19:30:34.635Z,100851.06
2023-05-19T19:33:04.635Z,100842.88
2023-05-19T19:35:33.809Z,100847.19
2023-05-19T19:38:02.329Z,100848.81
2023-05-19T19:40:32.451Z,100847.19
2023-05-19T19:43:01.321Z,100848.84
2023-05-19T19:45:29.768Z,100851.38
2023-05-19T19:47:59.634Z,100854.44
2023-05-19T19:50:29.411Z,100854.59
2023-05-19T19:52:57.464Z,100853.31
2023-05-19T19:55:25.600Z,100859.34
2023-05-19T19:57:56.356Z,100857.72
2023-05-19T20:00:25.689Z,100853.88
2023-05-19T20:03:03.686Z,100860.22
2023-05-19T20:05:34.582Z,100857.72
2023-05-19T20:08:03.129Z,100855.38
2023-05-19T20:10:31.886Z,100858.19
2023-05-19T20:13:00.498Z,100858.75
2023-05-19T20:15:29.186Z,100854.91
2023-05-19T20:17:57.467Z,100859.50
2023-05-19T20:20:25.729Z,100850.66
2023-05-19T20:22:55.982Z,100849.75
2023-05-19T20:25:24.218Z,100843.84
2023-05-19T20:27:52.587Z,100856.25
2023-05-19T20:30:21.580Z,100849.84
2023-05-19T20:32:50.086Z,100853.88
2023-05-19T20:35:19.347Z,100852.50
2023-05-19T20:37:49.566Z,100850.59
2023-05-19T20:40:19.687Z,100848.63
2023-05-19T20:42:48.014Z,100853.63
2023-05-19T20:45:16.563Z,100857.72
2023-05-19T20:47:46.218Z,100852.13
2023-05-19T20:50:14.768Z,100852.91
2023-05-19T20:52:43.678Z,100849.78
2023-05-19T20:55:12.203Z,100848.44
2023-05-19T20:57:43.795Z,100844.91
2023-05-19T21:00:12.952Z,100848.44
2023-05-19T21:02:41.390Z,100843.31
2023-05-19T21:05:10.088Z,100842.09
2023-05-19T21:07:38.377Z,100842.06
2023-05-19T21:10:07.803Z,100842.94
2023-05-19T21:12:36.291Z,100842.63
2023-05-19T21:15:08.035Z,100833.91
2023-05-19T21:17:36.717Z,100836.72
2023-05-19T21:20:09.761Z,100834.94
2023-05-19T21:22:38.160Z,100833.88
2023-05-19T21:25:07.766Z,100822.81
2023-05-19T21:27:37.296Z,100831.81
2023-05-19T21:30:09.631Z,100835.66
2023-05-19T21:32:38.066Z,100838.78
2023-05-19T21:35:07.198Z,100833.63
2023-05-19T21:37:36.452Z,100838.31
2023-05-19T21:40:05.018Z,100841.78
2023-05-19T21:42:33.286Z,100841.47
2023-05-19T21:45:01.847Z,100841.47
2023-05-19T21:47:33.947Z,100837.69
2023-05-19T21:50:02.520Z,100845.59
2023-05-19T21:52:31.314Z,100844.81
2023-05-19T21:54:59.677Z,100841.47
2023-05-19T21:57:28.295Z,100838.91
2023-05-19T21:59:56.488Z,100838.59
2023-05-19T22:02:27.882Z,100842.59
2023-05-19T22:05:01.198Z,100843.44
2023-05-19T22:07:30.082Z,100839.50
2023-05-19T22:09:58.724Z,100837.44
2023-05-19T22:12:27.502Z,100834.91
2023-05-19T22:14:56.152Z,100821.19
2023-05-19T22:17:24.552Z,100822.34
2023-05-19T22:19:53.082Z,100819.91
2023-05-19T22:22:22.791Z,100814.91
2023-05-19T22:24:51.895Z,100818.59
2023-05-19T22:27:20.194Z,100821.69
2023-05-19T22:29:49.736Z,100828.19
2023-05-19T22:32:19.713Z,100824.09
2023-05-19T22:34:50.599Z,100829.69
2023-05-19T22:37:18.886Z,100824.25
2023-05-19T22:39:48.569Z,100819.53
2023-05-19T22:42:16.740Z,100822.44
2023-05-19T22:44:45.457Z,100820.16
2023-05-19T22:47:14.051Z,100819.53
2023-05-19T22:49:42.578Z,100820.00
2023-05-19T22:52:12.598Z,100814.50
2023-05-19T22:54:41.053Z,100815.41
2023-05-19T22:57:10.612Z,100823.34
2023-05-19T22:59:39.979Z,100817.94
2023-05-19T23:02:09.954Z,100803.50
2023-05-19T23:04:38.834Z,100815.78
2023-05-19T23:07:07.447Z,100815.16
2023-05-19T23:09:35.727Z,100810.22
2023-05-19T23:12:04.141Z,100820.31
2023-05-19T23:14:34.124Z,100822.69
2023-05-19T23:17:02.907Z,100818.81
2023-05-19T23:19:32.012Z,100821.19
2023-05-19T23:22:01.111Z,100815.63
2023-05-19T23:24:29.921Z,100815.63
2023-05-19T23:26:58.158Z,100802.44
2023-05-19T23:29:26.636Z,100811.97
2023-05-19T23:31:56.459Z,100809.44
2023-05-19T23:34:25.048Z,100814.16
2023-05-19T23:36:56.272Z,100798.59
2023-05-19T23:39:25.593Z,100815.13
2023-05-19T23:41:53.764Z,100807.56
2023-05-19T23:44:21.860Z,100812.88
2023-05-19T23:46:50.527Z,100805.84
2023-05-19T23:49:20.455Z,100803.63
2023-05-19T23:51:48.862Z,100805.69
2023-05-19T23:54:17.043Z,100805.97
2023-05-19T23:56:45.930Z,100806.69
2023-05-19T23:59:14.360Z,100806.56
